Time;durP1;ratioP1;P1;durP2;ratioP2;P2;SDS_P1;SDS_P2;PMS_P1;PMS_P2;Temp;Humidity;BMP_temperature;BMP_pressure;BME280_temperature;BME280_humidity;BME280_pressure;Samples;Min_cycle;Max_cycle;Signal;HPM_P1;HPM_P2
2022/10/09 00:01:28;;;;;;;39.30;36.30;;;;;;;8.97;100.00;101432.06;6161770;23;20462;-82
2022/10/09 00:03:57;;;;;;;39.63;36.33;;;;;;;9.03;100.00;101439.28;6161779;23;20025;-81
2022/10/09 00:06:26;;;;;;;36.92;34.30;;;;;;;8.82;100.00;101436.47;6162935;23;20101;-82
2022/10/09 00:08:56;;;;;;;37.17;34.30;;;;;;;8.83;100.00;101436.28;6162556;23;20022;-81
2022/10/09 00:11:26;;;;;;;36.50;33.38;;;;;;;8.97;100.00;101429.41;6159969;23;20491;-81
2022/10/09 00:14:03;;;;;;;36.22;33.50;;;;;;;8.87;100.00;101424.34;6159592;23;20017;-81
2022/10/09 00:16:30;;;;;;;35.65;32.85;;;;;;;8.89;100.00;101432.94;6163080;23;20013;-81
2022/10/09 00:18:58;;;;;;;37.38;34.38;;;;;;;8.97;100.00;101433.88;6163084;23;20021;-81
2022/10/09 00:21:27;;;;;;;37.28;34.47;;;;;;;8.93;100.00;101428.13;6159439;23;20056;-82
2022/10/09 00:24:17;;;;;;;36.63;33.83;;;;;;;8.93;100.00;101430.78;6159458;23;20172;-81
2022/10/09 00:27:20;;;;;;;38.90;35.53;;;;;;;8.97;100.00;101429.41;6161187;23;20017;-82
2022/10/09 00:29:49;;;;;;;38.45;35.65;;;;;;;8.99;100.00;101430.06;6152690;23;20028;-82
2022/10/09 00:32:16;;;;;;;38.25;35.55;;;;;;;8.84;100.00;101430.00;6161014;23;20087;-81
2022/10/09 00:34:43;;;;;;;41.80;37.08;;;;;;;9.06;100.00;101423.03;6161396;23;20057;-82
2022/10/09 00:37:11;;;;;;;36.00;32.83;;;;;;;9.10;100.00;101423.50;6164315;23;20402;-81
2022/10/09 00:39:38;;;;;;;37.50;34.50;;;;;;;8.94;100.00;101416.50;6161570;23;20064;-81
2022/10/09 00:42:05;;;;;;;35.50;32.80;;;;;;;8.93;100.00;101418.34;6163268;23;20021;-81
2022/10/09 00:44:56;;;;;;;37.63;34.80;;;;;;;9.01;100.00;101416.63;6163647;23;20081;-81
2022/10/09 00:47:32;;;;;;;36.90;33.88;;;;;;;8.95;100.00;101416.31;6160388;23;20427;-81
2022/10/09 00:50:06;;;;;;;35.92;33.22;;;;;;;9.00;100.00;101421.09;6162670;23;20021;-82
2022/10/09 00:52:34;;;;;;;36.35;33.65;;;;;;;9.02;100.00;101416.47;6164237;23;20024;-81
2022/10/09 00:55:04;;;;;;;35.92;33.22;;;;;;;8.78;100.00;101422.75;6162833;23;20017;-82
2022/10/09 00:57:34;;;;;;;36.95;34.05;;;;;;;8.63;100.00;101411.28;6164901;23;20057;-81
2022/10/09 01:00:07;;;;;;;38.33;35.45;;;;;;;8.54;100.00;101409.69;6162988;23;20033;-81
2022/10/09 01:02:34;;;;;;;36.00;33.13;;;;;;;8.33;100.00;101424.34;6162550;23;20021;-81
2022/10/09 01:05:01;;;;;;;38.03;35.13;;;;;;;8.58;100.00;101414.44;6162275;23;20021;-81
2022/10/09 01:07:38;;;;;;;37.83;34.90;;;;;;;8.53;100.00;101415.97;6161314;23;20021;-82
2022/10/09 01:10:14;;;;;;;43.80;40.00;;;;;;;8.63;100.00;101420.06;6161676;23;20423;-82
2022/10/09 01:12:50;;;;;;;46.13;42.30;;;;;;;8.55;100.00;101416.63;6162224;23;20095;-81
2022/10/09 01:15:24;;;;;;;45.17;41.13;;;;;;;8.44;100.00;101421.34;6162681;23;20017;-82
2022/10/09 01:18:00;;;;;;;41.17;37.40;;;;;;;8.30;100.00;101431.81;6162925;23;20372;-81
2022/10/09 01:20:37;;;;;;;40.40;37.17;;;;;;;8.35;100.00;101429.44;6161639;23;20017;-82
2022/10/09 01:23:26;;;;;;;39.22;36.08;;;;;;;8.10;100.00;101426.91;6166544;23;20331;-82
2022/10/09 01:26:09;;;;;;;41.35;37.75;;;;;;;8.15;100.00;101429.06;6159527;23;20097;-81
2022/10/09 01:28:40;;;;;;;38.63;34.72;;;;;;;8.18;100.00;101420.78;6162917;23;20018;-82
2022/10/09 01:31:10;;;;;;;42.13;38.60;;;;;;;8.25;100.00;101422.53;6161903;23;20025;-84
2022/10/09 01:33:39;;;;;;;43.33;39.95;;;;;;;8.40;100.00;101416.56;6161342;23;20029;-81
2022/10/09 01:36:08;;;;;;;39.63;36.67;;;;;;;7.98;100.00;101425.66;6161395;23;20033;-81
2022/10/09 01:38:39;;;;;;;38.85;35.95;;;;;;;8.34;100.00;101435.75;6161744;23;20021;-82
2022/10/09 01:41:08;;;;;;;37.47;34.63;;;;;;;8.59;100.00;101425.88;6161439;23;20356;-83
2022/10/09 01:43:43;;;;;;;36.38;33.58;;;;;;;8.62;100.00;101429.00;6165274;23;20386;-82
2022/10/09 01:46:19;;;;;;;37.45;34.53;;;;;;;8.61;100.00;101416.75;6160302;23;20028;-85
2022/10/09 01:49:15;;;;;;;37.05;34.28;;;;;;;8.42;100.00;101422.50;6159046;23;20028;-81
2022/10/09 01:51:55;;;;;;;33.13;30.42;;;;;;;7.99;100.00;101425.50;6158459;23;20032;-82
2022/10/09 01:54:31;;;;;;;33.67;31.23;;;;;;;8.03;100.00;101428.63;6159512;23;20025;-81
2022/10/09 01:57:08;;;;;;;34.50;31.60;;;;;;;7.91;100.00;101430.00;6160370;23;20025;-81
2022/10/09 01:59:42;;;;;;;38.70;34.78;;;;;;;8.12;100.00;101432.06;6160416;23;20021;-83
2022/10/09 02:02:09;;;;;;;40.08;36.35;;;;;;;8.30;100.00;101426.50;6146993;23;20025;-81
2022/10/09 02:04:39;;;;;;;42.50;38.08;;;;;;;8.26;100.00;101428.69;6160920;23;20036;-82
2022/10/09 02:07:06;;;;;;;49.22;42.50;;;;;;;7.99;100.00;101433.44;6161122;23;20025;-81
2022/10/09 02:09:35;;;;;;;51.30;44.58;;;;;;;8.18;100.00;101429.53;6164343;23;20021;-83
2022/10/09 02:12:08;;;;;;;46.28;41.35;;;;;;;7.91;100.00;101430.00;6161452;23;20096;-81
2022/10/09 02:14:38;;;;;;;46.30;39.90;;;;;;;7.54;100.00;101431.41;6158054;23;20490;-81
2022/10/09 02:17:10;;;;;;;49.15;43.75;;;;;;;8.10;100.00;101429.56;6163784;23;20029;-81
2022/10/09 02:19:43;;;;;;;51.08;45.58;;;;;;;8.15;100.00;101439.66;6160189;23;20334;-82
2022/10/09 02:22:18;;;;;;;48.45;43.85;;;;;;;7.90;100.00;101431.00;6163696;23;20100;-81
2022/10/09 02:24:46;;;;;;;44.83;40.55;;;;;;;7.75;100.00;101436.97;6162289;23;20035;-82
2022/10/09 02:27:14;;;;;;;42.92;38.80;;;;;;;7.81;100.00;101430.19;6162670;23;20021;-81
2022/10/09 02:29:44;;;;;;;43.78;39.67;;;;;;;8.18;100.00;101426.06;6160270;23;20360;-81
2022/10/09 02:32:13;;;;;;;42.22;37.92;;;;;;;7.73;100.00;101432.84;6160493;23;20115;-81
2022/10/09 02:34:43;;;;;;;41.47;37.17;;;;;;;7.93;100.00;101435.94;6161381;23;20018;-82
2022/10/09 02:37:10;;;;;;;41.38;37.30;;;;;;;7.78;100.00;101434.00;6161109;23;20040;-81
2022/10/09 02:39:37;;;;;;;39.60;35.95;;;;;;;7.66;100.00;101432.72;6159935;23;20017;-81
2022/10/09 02:42:05;;;;;;;41.80;38.13;;;;;;;7.66;100.00;101429.25;6157707;23;20032;-82
2022/10/09 02:44:32;;;;;;;38.63;35.17;;;;;;;7.78;100.00;101435.81;6163260;23;20036;-81
2022/10/09 02:47:00;;;;;;;42.92;39.33;;;;;;;7.90;100.00;101437.09;6158877;23;20048;-82
2022/10/09 02:49:28;;;;;;;41.75;38.53;;;;;;;7.93;100.00;101441.22;6161120;23;20029;-81
2022/10/09 02:52:01;;;;;;;37.15;33.92;;;;;;;7.72;100.00;101445.25;6158367;23;20189;-81
2022/10/09 02:54:28;;;;;;;37.58;34.28;;;;;;;7.67;100.00;101439.63;6159751;23;20568;-82
2022/10/09 02:56:57;;;;;;;37.42;34.30;;;;;;;7.69;100.00;101442.94;6161432;23;20021;-82
2022/10/09 02:59:25;;;;;;;38.28;34.80;;;;;;;7.43;100.00;101426.47;6160400;23;20343;-82
2022/10/09 03:01:52;;;;;;;40.30;36.70;;;;;;;7.85;100.00;101428.84;6158850;23;20342;-82
2022/10/09 03:04:21;;;;;;;38.00;34.55;;;;;;;7.78;100.00;101436.63;6163428;23;20045;-83
2022/10/09 03:06:52;;;;;;;38.72;35.22;;;;;;;7.81;100.00;101427.53;6160538;23;20061;-83
2022/10/09 03:09:19;;;;;;;38.22;35.15;;;;;;;7.82;100.00;101431.00;6159690;23;20332;-82
2022/10/09 03:11:48;;;;;;;36.55;33.83;;;;;;;7.89;100.00;101438.06;6157716;23;20029;-81
2022/10/09 03:14:19;;;;;;;36.13;32.97;;;;;;;7.88;100.00;101435.63;6161866;23;20017;-81
2022/10/09 03:16:47;;;;;;;35.00;32.10;;;;;;;7.58;100.00;101440.66;6159399;23;20461;-81
2022/10/09 03:19:14;;;;;;;34.22;31.63;;;;;;;7.23;100.00;101434.75;6159965;23;20018;-84
2022/10/09 03:21:44;;;;;;;44.25;41.05;;;;;;;13.05;100.00;101432.63;6158856;23;20112;-80
2022/10/09 03:24:11;;;;;;;34.92;32.03;;;;;;;15.83;100.00;101425.25;6156080;23;20022;-80
2022/10/09 03:26:38;;;;;;;36.85;34.35;;;;;;;16.92;100.00;101416.13;6157060;23;20427;-81
2022/10/09 03:29:07;;;;;;;39.60;36.83;;;;;;;16.06;100.00;101411.16;6157690;23;20442;-81
2022/10/09 03:31:34;;;;;;;41.60;38.65;;;;;;;9.52;100.00;101425.59;6159336;23;20022;-80
2022/10/09 03:34:01;;;;;;;36.33;33.72;;;;;;;8.24;100.00;101422.72;6158424;23;20028;-81
2022/10/09 03:36:28;;;;;;;39.58;36.42;;;;;;;7.99;100.00;101427.31;6158742;23;20021;-81
2022/10/09 03:38:57;;;;;;;37.55;34.38;;;;;;;8.11;100.00;101427.75;6156553;23;20025;-81
2022/10/09 03:41:24;;;;;;;37.42;34.63;;;;;;;7.79;100.00;101430.34;6155709;23;20037;-80
2022/10/09 03:43:51;;;;;;;35.28;32.58;;;;;;;7.69;100.00;101435.00;6156785;23;20024;-82
2022/10/09 03:46:19;;;;;;;35.83;33.15;;;;;;;7.65;100.00;101433.69;6156611;23;20041;-80
2022/10/09 03:48:46;;;;;;;36.55;33.53;;;;;;;7.53;100.00;101433.25;6156456;23;20021;-81
2022/10/09 03:51:13;;;;;;;36.78;33.92;;;;;;;7.52;100.00;101441.31;6155563;23;20017;-80
2022/10/09 03:53:46;;;;;;;34.75;32.15;;;;;;;7.08;100.00;101439.03;6156114;23;20037;-81
2022/10/09 03:56:14;;;;;;;38.70;35.75;;;;;;;7.59;100.00;101444.94;6156247;23;20068;-82
2022/10/09 03:58:43;;;;;;;39.63;36.28;;;;;;;7.55;100.00;101435.69;6157923;23;20053;-80
2022/10/09 04:01:10;;;;;;;37.55;34.58;;;;;;;8.40;100.00;101435.09;6159126;23;20032;-80
2022/10/09 04:03:37;;;;;;;36.67;33.97;;;;;;;9.54;100.00;101434.19;6160960;23;20032;-82
2022/10/09 04:06:04;;;;;;;39.13;35.90;;;;;;;8.89;100.00;101427.63;6158319;23;20350;-81
2022/10/09 04:08:36;;;;;;;35.72;33.40;;;;;;;8.01;100.00;101439.34;6158907;23;20018;-81
2022/10/09 04:11:05;;;;;;;38.40;35.22;;;;;;;7.56;100.00;101440.84;6159618;23;20330;-81
2022/10/09 04:13:34;;;;;;;38.45;35.55;;;;;;;7.60;100.00;101446.59;6159126;23;20022;-81
2022/10/09 04:16:29;;;;;;;38.35;35.25;;;;;;;7.49;100.00;101444.31;6163717;23;20029;-81
2022/10/09 04:19:06;;;;;;;37.28;33.95;;;;;;;7.01;100.00;101449.44;6160120;23;20033;-77
2022/10/09 04:21:50;;;;;;;35.30;32.45;;;;;;;7.26;100.00;101441.50;6160211;23;20390;-80
2022/10/09 04:24:35;;;;;;;37.85;34.65;;;;;;;7.26;100.00;101452.94;6157851;23;20021;-78
2022/10/09 04:27:26;;;;;;;36.38;33.25;;;;;;;7.23;100.00;101447.13;6161071;23;20032;-80
2022/10/09 04:30:25;;;;;;;35.75;32.75;;;;;;;7.02;100.00;101440.53;6157487;23;20092;-80
2022/10/09 04:33:05;;;;;;;37.35;34.10;;;;;;;7.16;100.00;101438.22;6135421;23;20052;-80
2022/10/09 04:35:45;;;;;;;33.95;31.45;;;;;;;7.14;100.00;101445.47;6158749;23;20028;-82
2022/10/09 04:38:19;;;;;;;36.72;33.83;;;;;;;7.20;100.00;101453.59;6156730;23;20109;-80
2022/10/09 04:41:03;;;;;;;35.50;32.80;;;;;;;7.23;100.00;101450.63;6157189;23;20026;-81
2022/10/09 04:43:35;;;;;;;36.15;33.42;;;;;;;7.00;100.00;101446.97;6159129;23;20026;-81
2022/10/09 04:46:10;;;;;;;36.35;32.85;;;;;;;7.34;100.00;101462.66;6160289;23;20533;-81
2022/10/09 04:49:01;;;;;;;38.78;35.35;;;;;;;7.57;100.00;101465.44;6159301;23;20343;-82
2022/10/09 04:51:49;;;;;;;;;;;;;;;;;;;;;
2022/10/09 04:54:45;;;;;;;39.30;35.95;;;;;;;7.76;100.00;101474.81;6159710;23;20073;-82
2022/10/09 04:57:40;;;;;;;39.63;36.33;;;;;;;7.91;100.00;101469.66;6138575;23;20025;-80
2022/10/09 05:00:23;;;;;;;39.25;35.80;;;;;;;7.96;100.00;101460.22;6158799;23;20049;-82
2022/10/09 05:02:59;;;;;;;41.92;38.42;;;;;;;8.14;100.00;101472.38;6159552;23;20032;-79
2022/10/09 05:05:32;;;;;;;41.25;37.78;;;;;;;8.26;100.00;101463.91;6158733;23;20025;-80
2022/10/09 05:08:08;;;;;;;41.83;38.65;;;;;;;8.26;100.00;101474.50;6157403;23;20056;-79
2022/10/09 05:11:05;;;;;;;40.53;37.20;;;;;;;8.42;100.00;101463.03;6157500;23;20032;-79
2022/10/09 05:14:01;;;;;;;40.75;37.67;;;;;;;8.64;100.00;101471.19;6149417;23;20110;-80
2022/10/09 05:16:35;;;;;;;38.38;35.10;;;;;;;8.73;100.00;101471.97;6096310;23;20122;-80
2022/10/09 05:19:05;;;;;;;42.55;39.03;;;;;;;8.93;100.00;101475.81;6096797;23;20025;-78
2022/10/09 05:21:36;;;;;;;41.35;37.85;;;;;;;9.06;100.00;101480.50;6096030;23;20022;-81
2022/10/09 05:24:13;;;;;;;44.83;41.13;;;;;;;9.32;100.00;101480.13;6095636;23;20022;-81
2022/10/09 05:26:50;;;;;;;45.47;41.22;;;;;;;9.45;100.00;101476.88;6150223;23;20030;-80
2022/10/09 05:29:34;;;;;;;43.60;40.05;;;;;;;9.65;100.00;101480.66;6157357;23;20022;-82
2022/10/09 05:32:35;;;;;;;41.70;38.47;;;;;;;9.75;100.00;101477.75;6158934;23;20028;-80
2022/10/09 05:35:26;;;;;;;42.55;39.20;;;;;;;9.94;100.00;101482.50;6156664;23;20017;-80
2022/10/09 05:38:15;;;;;;;39.10;36.10;;;;;;;9.99;100.00;101485.44;6160678;23;20480;-80
2022/10/09 05:41:01;;;;;;;39.83;36.72;;;;;;;10.86;100.00;101505.09;6166748;23;20493;-81
2022/10/09 05:43:35;;;;;;;38.38;35.28;;;;;;;10.78;100.00;101503.41;6169958;23;20033;-80
2022/10/09 05:46:13;;;;;;;38.83;35.63;;;;;;;10.86;100.00;101505.09;6159215;23;20025;-80
2022/10/09 05:48:49;;;;;;;39.60;36.53;;;;;;;10.95;100.00;101506.63;6158507;23;20538;-79
2022/10/09 05:51:30;;;;;;;37.58;34.75;;;;;;;11.12;100.00;101507.22;6163157;23;20109;-81
2022/10/09 05:54:08;;;;;;;40.65;37.63;;;;;;;11.23;100.00;101504.88;6161306;23;20076;-80
2022/10/09 05:56:42;;;;;;;39.58;36.63;;;;;;;11.44;100.00;101514.66;6158635;23;20129;-80
2022/10/09 05:59:22;;;;;;;40.65;37.60;;;;;;;11.56;100.00;101511.47;6166774;23;20028;-80
2022/10/09 06:01:54;;;;;;;39.00;36.00;;;;;;;11.62;100.00;101516.03;6166960;23;20508;-80
2022/10/09 06:04:26;;;;;;;40.10;36.90;;;;;;;12.00;100.00;101516.50;6164225;23;20438;-80
2022/10/09 06:06:59;;;;;;;41.35;38.40;;;;;;;12.09;100.00;101523.31;6163003;23;20096;-80
2022/10/09 06:09:26;;;;;;;41.58;38.17;;;;;;;12.43;100.00;101532.31;6166423;23;20021;-81
2022/10/09 06:12:01;;;;;;;43.20;39.78;;;;;;;12.80;100.00;101531.03;6165235;23;20403;-81
2022/10/09 06:14:28;;;;;;;39.88;36.97;;;;;;;12.96;100.00;101529.00;6166790;23;20022;-81
2022/10/09 06:17:01;;;;;;;39.75;36.63;;;;;;;14.57;100.00;101529.50;6158622;23;20022;-80
2022/10/09 06:19:28;;;;;;;39.33;36.03;;;;;;;13.41;100.00;101519.44;6159614;23;20342;-78
2022/10/09 06:22:01;;;;;;;39.92;36.35;;;;;;;13.37;100.00;101522.72;6157064;23;20064;-79
2022/10/09 06:24:37;;;;;;;39.47;36.00;;;;;;;13.67;100.00;101531.13;6156028;23;20097;-80
2022/10/09 06:27:07;;;;;;;41.45;37.72;;;;;;;13.89;100.00;101537.09;6155112;23;20025;-82
2022/10/09 06:29:34;;;;;;;39.70;36.03;;;;;;;14.03;100.00;101540.53;6154397;23;20033;-80
2022/10/09 06:32:02;;;;;;;41.78;37.78;;;;;;;13.82;100.00;101539.75;6156425;23;20025;-78
2022/10/09 06:34:30;;;;;;;42.65;38.75;;;;;;;14.17;100.00;101536.81;6156120;23;20021;-82
2022/10/09 06:36:59;;;;;;;42.53;39.10;;;;;;;14.50;100.00;101549.25;6156140;23;20025;-79
2022/10/09 06:39:37;;;;;;;42.95;39.50;;;;;;;14.89;100.00;101541.06;6157256;23;20022;-80
2022/10/09 06:42:08;;;;;;;42.97;39.67;;;;;;;15.07;100.00;101544.91;6159691;23;20025;-79
2022/10/09 06:44:36;;;;;;;42.72;39.45;;;;;;;15.58;100.00;101549.22;6158765;23;20021;-79
2022/10/09 06:47:05;;;;;;;39.60;36.25;;;;;;;15.84;100.00;101536.69;6160206;23;20435;-80
2022/10/09 06:49:32;;;;;;;36.95;33.90;;;;;;;15.60;100.00;101547.16;6160440;23;20442;-79
2022/10/09 06:52:03;;;;;;;37.35;34.10;;;;;;;15.86;100.00;101538.13;6161838;23;20040;-79
2022/10/09 06:54:32;;;;;;;36.53;33.25;;;;;;;16.40;100.00;101535.66;6161490;23;20096;-79
2022/10/09 06:57:01;;;;;;;36.20;33.17;;;;;;;16.62;100.00;101531.47;6162850;23;20021;-80
2022/10/09 06:59:32;;;;;;;38.30;35.05;;;;;;;16.40;100.00;101532.97;6161575;23;20029;-79
2022/10/09 07:02:03;;;;;;;37.53;34.42;;;;;;;16.19;100.00;101536.97;6164546;23;20017;-79
2022/10/09 07:04:36;;;;;;;36.70;33.50;;;;;;;16.34;100.00;101540.06;6159442;23;20084;-79
2022/10/09 07:07:04;;;;;;;36.28;33.50;;;;;;;16.51;100.00;101540.28;6166928;23;20036;-79
2022/10/09 07:09:32;;;;;;;36.85;33.90;;;;;;;16.82;100.00;101549.19;6161841;23;20435;-80
2022/10/09 07:12:06;;;;;;;35.50;32.70;;;;;;;17.27;100.00;101538.81;6159547;23;20021;-78
2022/10/09 07:14:39;;;;;;;36.33;33.25;;;;;;;16.49;100.00;101537.03;6162799;23;20033;-79
2022/10/09 07:17:10;;;;;;;37.13;33.97;;;;;;;15.78;100.00;101538.38;6163028;23;20105;-80
2022/10/09 07:19:42;;;;;;;35.15;32.53;;;;;;;16.36;100.00;101542.53;6159570;23;20346;-80
2022/10/09 07:22:11;;;;;;;36.45;33.65;;;;;;;17.20;100.00;101545.38;6164025;23;20018;-80
2022/10/09 07:24:41;;;;;;;34.38;31.70;;;;;;;17.49;100.00;101538.28;6160795;23;20028;-80
2022/10/09 07:30:01;;;;;;;35.53;32.97;;;;;;;18.03;100.00;101537.16;6161972;23;20018;-79
2022/10/09 07:32:31;;;;;;;36.05;33.35;;;;;;;18.26;100.00;101541.66;6165960;23;20077;-79
2022/10/09 07:34:59;;;;;;;34.67;31.77;;;;;;;18.61;100.00;101542.63;6164230;23;20032;-80
2022/10/09 07:37:30;;;;;;;35.50;32.60;;;;;;;19.19;100.00;101542.41;6160758;23;20049;-81
2022/10/09 07:39:59;;;;;;;36.00;33.20;;;;;;;19.29;100.00;101549.81;6164761;23;20024;-79
2022/10/09 07:42:33;;;;;;;36.17;33.30;;;;;;;19.10;100.00;101543.84;6168212;23;20029;-78
2022/10/09 07:45:20;;;;;;;34.92;32.20;;;;;;;17.89;100.00;101546.53;6164259;23;20048;-79
2022/10/09 07:47:55;;;;;;;51.03;43.45;;;;;;;18.57;100.00;101538.78;6162864;23;20080;-79
2022/10/09 07:50:33;;;;;;;38.40;35.10;;;;;;;17.76;100.00;101542.16;6164594;23;20330;-80
2022/10/09 07:53:13;;;;;;;35.22;32.47;;;;;;;19.50;100.00;101536.69;6163533;23;20044;-79
2022/10/09 07:55:52;;;;;;;39.47;36.15;;;;;;;18.67;100.00;101541.66;6162056;23;20447;-78
2022/10/09 07:58:25;;;;;;;40.42;37.13;;;;;;;20.31;100.00;101537.88;6163272;23;20391;-79
2022/10/09 08:01:07;;;;;;;35.22;32.63;;;;;;;19.74;100.00;101543.56;6162962;23;20031;-79
2022/10/09 08:03:47;;;;;;;36.77;33.73;;;;;;;19.78;100.00;101538.50;6162122;23;20027;-80
2022/10/09 08:06:20;;;;;;;35.35;32.67;;;;;;;21.60;100.00;101534.56;6162643;23;20261;-80
2022/10/09 08:08:56;;;;;;;35.78;33.10;;;;;;;20.26;100.00;101545.06;6161921;23;20021;-80
2022/10/09 08:11:42;;;;;;;35.85;32.88;;;;;;;19.88;100.00;101546.75;6165628;23;20036;-80
2022/10/09 08:14:22;;;;;;;36.80;33.60;;;;;;;20.56;100.00;101540.06;6164103;23;20080;-81
2022/10/09 08:17:06;;;;;;;36.42;33.63;;;;;;;21.30;100.00;101540.50;6162132;23;20021;-79
2022/10/09 08:19:39;;;;;;;36.78;33.88;;;;;;;20.55;100.00;101540.34;6158179;23;20037;-81
2022/10/09 08:22:18;;;;;;;35.83;33.00;;;;;;;20.87;100.00;101537.69;6158694;23;20455;-82
2022/10/09 08:24:50;;;;;;;35.13;32.53;;;;;;;20.89;100.00;101530.16;6159610;23;20120;-79
2022/10/09 08:27:16;;;;;;;36.58;33.60;;;;;;;20.79;100.00;101543.56;6157401;23;20032;-80
2022/10/09 08:29:46;;;;;;;35.95;33.15;;;;;;;20.31;100.00;101532.47;6157235;23;20631;-80
2022/10/09 08:32:20;;;;;;;34.63;31.63;;;;;;;20.86;100.00;101533.38;6155988;23;20026;-80
2022/10/09 08:34:51;;;;;;;34.25;31.35;;;;;;;20.19;100.00;101536.38;6158611;23;20077;-81
2022/10/09 08:37:22;;;;;;;36.97;33.95;;;;;;;20.06;100.00;101537.53;6157884;23;20073;-80
2022/10/09 08:39:57;;;;;;;36.90;33.63;;;;;;;20.19;100.00;101530.97;6158310;23;20088;-80
2022/10/09 08:42:33;;;;;;;37.30;34.20;;;;;;;21.22;100.00;101528.31;6157932;23;20634;-83
2022/10/09 08:45:16;;;;;;;37.15;33.97;;;;;;;22.36;100.00;101529.59;6158262;23;20021;-81
2022/10/09 08:48:10;;;;;;;36.38;33.38;;;;;;;20.58;100.00;101521.75;6156607;23;20021;-79
2022/10/09 08:50:45;;;;;;;36.80;34.00;;;;;;;19.90;100.00;101521.13;6156623;23;20088;-80
2022/10/09 08:53:31;;;;;;;36.80;33.80;;;;;;;21.26;100.00;101526.72;6156800;23;20022;-80
2022/10/09 08:56:02;;;;;;;36.60;33.15;;;;;;;20.52;100.00;101533.56;6156571;23;20025;-80
2022/10/09 08:58:40;;;;;;;35.67;32.67;;;;;;;21.63;100.00;101520.53;6156897;23;20475;-79
2022/10/09 09:01:59;;;;;;;39.78;36.40;;;;;;;22.28;100.00;101529.28;6156826;23;20033;-78
2022/10/09 09:05:11;;;;;;;37.83;34.83;;;;;;;21.14;100.00;101529.59;6157298;23;20458;-80
2022/10/09 09:07:49;;;;;;;37.88;34.60;;;;;;;21.38;100.00;101532.78;6144041;23;20037;-79
2022/10/09 09:10:45;;;;;;;;;;;;;;;;;;;;;
2022/10/09 09:13:32;;;;;;;36.40;33.30;;;;;;;20.47;100.00;101529.97;6157873;23;20103;-82
2022/10/09 09:16:11;;;;;;;36.22;33.10;;;;;;;20.19;100.00;101529.09;6156884;23;20025;-80
2022/10/09 09:18:43;;;;;;;37.80;34.78;;;;;;;21.17;100.00;101534.47;6157082;23;20096;-81
2022/10/09 09:21:31;;;;;;;36.22;32.97;;;;;;;21.91;100.00;101522.06;6156651;23;20052;-80
2022/10/09 09:24:17;;;;;;;34.53;31.52;;;;;;;21.11;100.00;101531.97;6156764;23;20394;-80
2022/10/09 09:26:59;;;;;;;37.45;34.00;;;;;;;21.93;100.00;101523.41;6156566;23;20017;-82
2022/10/09 09:33:03;;;;;;;37.05;34.15;;;;;;;21.65;100.00;101519.19;6156451;23;20032;-79
2022/10/09 09:35:41;;;;;;;36.28;33.53;;;;;;;21.64;100.00;101517.56;6154601;23;20409;-78
2022/10/09 09:38:36;;;;;;;37.17;34.20;;;;;;;21.38;96.80;101515.75;6155933;23;20032;-80
2022/10/09 09:41:14;;;;;;;36.20;33.40;;;;;;;20.75;100.00;101518.13;6156413;23;20308;-79
2022/10/09 09:43:52;;;;;;;35.60;32.50;;;;;;;21.07;94.81;101523.59;6157315;23;20096;-79
2022/10/09 09:46:44;;;;;;;;;;;;;;;;;;;;;
2022/10/09 09:49:33;;;;;;;35.42;32.38;;;;;;;21.84;100.00;101516.06;6156882;23;20418;-80
2022/10/09 09:52:01;;;;;;;36.15;33.38;;;;;;;22.08;98.65;101509.16;6156548;23;20025;-83
2022/10/09 09:54:38;;;;;;;35.38;32.67;;;;;;;23.03;100.00;101514.34;6156415;23;20390;-81
2022/10/09 09:57:13;;;;;;;36.05;32.97;;;;;;;23.03;93.60;101514.34;6155262;23;20081;-80
2022/10/09 09:59:47;;;;;;;35.67;32.92;;;;;;;22.48;81.29;101502.31;6154409;23;20028;-80
2022/10/09 10:02:26;;;;;;;36.50;33.40;;;;;;;24.45;84.96;101498.03;6155065;23;20464;-81
2022/10/09 10:05:02;;;;;;;35.97;33.30;;;;;;;24.11;67.54;101497.88;6154721;23;20057;-80
2022/10/09 10:07:34;;;;;;;37.00;34.13;;;;;;;23.89;84.07;101498.25;6155355;23;20097;-79
2022/10/09 10:10:23;;;;;;;;;;;;;;;;;;;;;
2022/10/09 10:12:57;;;;;;;36.17;33.30;;;;;;;24.51;73.15;101501.53;6155957;23;20097;-80
2022/10/09 10:15:26;;;;;;;36.65;33.75;;;;;;;24.61;71.31;101501.47;6155264;23;20104;-80
2022/10/09 10:18:02;;;;;;;36.65;33.78;;;;;;;24.37;67.87;101487.72;6154664;23;20017;-80
2022/10/09 10:20:32;;;;;;;36.65;33.88;;;;;;;25.73;66.62;101494.28;6155391;23;20454;-80
2022/10/09 10:23:01;;;;;;;36.05;33.15;;;;;;;26.73;57.13;101495.19;6155522;23;20065;-82
2022/10/09 10:25:34;;;;;;;35.97;33.25;;;;;;;24.93;56.89;101495.53;6155201;23;20022;-80
2022/10/09 10:28:06;;;;;;;36.85;33.85;;;;;;;23.69;58.23;101497.25;6156430;23;20039;-82
2022/10/09 10:30:35;;;;;;;37.70;34.80;;;;;;;24.66;64.72;101488.69;6155268;23;20032;-81
2022/10/09 10:33:14;;;;;;;37.88;34.95;;;;;;;24.94;57.96;101486.31;6157011;23;20060;-81
2022/10/09 10:35:46;;;;;;;37.65;34.58;;;;;;;24.82;59.80;101489.38;6155903;23;20024;-80
2022/10/09 10:38:22;;;;;;;37.47;34.70;;;;;;;24.47;58.67;101493.13;6156559;23;20093;-81
2022/10/09 10:40:56;;;;;;;37.72;34.67;;;;;;;23.89;60.56;101484.69;6154915;23;20025;-80
2022/10/09 10:43:33;;;;;;;37.70;34.78;;;;;;;24.12;57.91;101485.97;6156004;23;20025;-80
2022/10/09 10:46:05;;;;;;;35.70;33.00;;;;;;;24.09;61.81;101489.25;6155495;23;20017;-80
2022/10/09 10:48:38;;;;;;;37.08;34.38;;;;;;;24.87;56.91;101486.63;6155889;23;20025;-79
2022/10/09 10:51:25;;;;;;;36.88;33.95;;;;;;;24.80;52.65;101467.09;6155190;23;20427;-80
2022/10/09 10:54:04;;;;;;;48.13;44.63;;;;;;;24.76;56.91;101467.97;6155320;23;20096;-78
2022/10/09 10:56:36;;;;;;;48.15;44.95;;;;;;;23.99;58.41;101468.38;6155987;23;20026;-80
2022/10/09 10:59:20;;;;;;;46.88;43.47;;;;;;;25.23;60.49;101463.78;6155689;23;20025;-81
2022/10/09 11:02:10;;;;;;;48.35;44.72;;;;;;;25.11;56.50;101459.53;6154990;23;20018;-80
2022/10/09 11:04:46;;;;;;;46.55;43.25;;;;;;;26.07;52.73;101457.97;6154542;23;20451;-80
2022/10/09 11:07:25;;;;;;;46.60;43.50;;;;;;;27.12;47.10;101462.13;6154001;23;20036;-78
2022/10/09 11:10:06;;;;;;;47.05;43.30;;;;;;;27.28;51.23;101453.69;6155176;23;20338;-79
2022/10/09 11:12:41;;;;;;;37.08;34.08;;;;;;;25.69;49.52;101453.25;6157094;23;20021;-79
2022/10/09 11:15:18;;;;;;;36.38;33.47;;;;;;;25.31;50.42;101457.72;6156181;23;20028;-78
2022/10/09 11:17:55;;;;;;;37.63;34.83;;;;;;;25.98;49.16;101445.03;6155005;23;20013;-78
2022/10/09 11:20:49;;;;;;;37.20;34.08;;;;;;;25.13;52.00;101449.19;6154589;23;20040;-78
2022/10/09 11:23:28;;;;;;;36.97;34.17;;;;;;;25.76;53.76;101450.19;6155484;23;20523;-80
2022/10/09 11:26:04;;;;;;;38.03;35.03;;;;;;;25.39;49.01;101446.25;6155331;23;20017;-79
2022/10/09 11:28:37;;;;;;;38.38;35.00;;;;;;;26.62;49.45;101431.06;6154777;23;20024;-79
2022/10/09 11:31:12;;;;;;;34.92;32.33;;;;;;;27.16;53.50;101432.38;6154671;23;20018;-79
2022/10/09 11:33:44;;;;;;;35.97;32.85;;;;;;;26.03;48.38;101427.84;6154433;23;20026;-80
2022/10/09 11:36:14;;;;;;;;;;;;;;;27.32;44.53;101427.44;6155175;23;20017;-80
2022/10/09 11:38:46;;;;;;;34.42;31.73;;;;;;;25.21;50.26;101434.19;6155488;23;19926;-77
2022/10/09 11:41:15;;;;;;;;;;;;;;;26.73;48.72;101425.16;6155285;23;20382;-78
2022/10/09 11:43:54;;;;;;;35.72;32.63;;;;;;;26.25;47.15;101430.78;6154956;23;19921;-79
2022/10/09 11:46:30;;;;;;;36.58;33.63;;;;;;;26.81;45.68;101425.59;6154126;23;20367;-80
2022/10/09 11:49:06;;;;;;;35.85;33.17;;;;;;;25.61;47.93;101426.69;6152882;23;20025;-80
2022/10/09 11:51:42;;;;;;;35.72;32.90;;;;;;;25.68;48.21;101424.41;6155123;23;20021;-79
2022/10/09 11:54:16;;;;;;;34.92;32.28;;;;;;;24.95;51.67;101421.91;6154805;23;20439;-79